Helena Regional Airport
KHLN : now visible

Airfield :











YOU CAN JOIN US ON...

 
LOGIN :

Register | Disclaimer

   EN    FR    IT 

 









Legend :    VFR   Marginal VFR   IFR   Intensive IFR   Very Intensive IFR
Visi :
Ceiling :
>= 8 km
>= 3000ft
5 to 8 km
1000 to 3000 ft
1500m to 5 km
500 to 1000 ft
800 to 1500m
200 to 500 ft
< 800m
< 200 ft
Symbols :   Thunderstorms  Fog  Heavy snow  Heavy precipitations  Wind > 20 kt






- Airport Elevation : 3877 ft
- IATA code : HLN


KHLN - Helena Regional

CURRENT METAR :
  • 061353Z 00000KT 10SM CLR M04/M06 A3011 RMK AO2 SLP252 T10441061

EXPIRED METARs :
  • 061253Z 16004KT 9SM CLR M04/M06 A3011 RMK AO2 SLP251 T10441061

TAF KHLN
Valid from the 06 at 12:00 until the 07 at 12:00 UTC


061134Z 0612/0712 VRB03KT P6SM BKN110



MET'MAP, your aeronautical weather chart ! - Copyright ORBIFLY December 2007 - Disclaimer

ORBIFLY MET'MAP TEAM :

Programming & Development : Alexandra Zaïnal
Concept & original design : Baudouin d'Aumeries
Assistance for programming : Marc-Olivier Méhu
Technical & hardware support : Manuel Goepfert

Contact : metmap@orbifly.com




SOURCES & CREDITS :

   NOAA       Earth
Advisory